Time;durP1;ratioP1;P1;durP2;ratioP2;P2;SDS_P1;SDS_P2;PMS_P1;PMS_P2;Temp;Humidity;BMP_temperature;BMP_pressure;BME280_temperature;BME280_humidity;BME280_pressure;Samples;Min_cycle;Max_cycle;Signal;HPM_P1;HPM_P2
2021/12/24 00:00:51;;;;;;;50.83;26.05;;;;;;;;;;4854941;29;20077;-87
2021/12/24 00:03:17;;;;;;;52.20;25.48;;;;;;;;;;4854021;29;20104;-85
2021/12/24 00:05:43;;;;;;;49.08;24.45;;;;;;;;;;4850555;29;20462;-85
2021/12/24 00:08:08;;;;;;;47.08;24.83;;;;;;;;;;4853201;29;20045;-86
2021/12/24 00:10:37;;;;;;;47.10;25.13;;;;;;;;;;4858008;29;20041;-83
2021/12/24 00:13:08;;;;;;;48.70;25.67;;;;;;;;;;4853589;29;20036;-85
2021/12/24 00:15:51;;;;;;;52.55;25.77;;;;;;;;;;4849770;29;20033;-85
2021/12/24 00:35:06;;;;;;;49.13;25.38;;;;;;;;;;4856645;29;20045;-81
2021/12/24 00:37:09;;;;;;;44.03;23.92;;;;;;;;;;4858018;29;20044;-84
2021/12/24 00:39:38;;;;;;;46.88;25.70;;;;;;;;;;4854606;29;20029;-84
2021/12/24 00:42:03;;;;;;;47.15;23.60;;;;;;;;;;4857864;29;20060;-84
2021/12/24 00:44:29;;;;;;;42.13;22.77;;;;;;;;;;4847734;29;20481;-81
2021/12/24 00:46:54;;;;;;;42.55;22.58;;;;;;;;;;4854390;29;20547;-81
2021/12/24 00:49:20;;;;;;;39.28;21.85;;;;;;;;;;4854323;29;20036;-83
2021/12/24 00:57:13;;;;;;;36.35;21.67;;;;;;;;;;4857046;29;20453;-84
2021/12/24 00:59:38;;;;;;;39.63;20.27;;;;;;;;;;4856897;29;20034;-84
2021/12/24 01:02:04;;;;;;;35.95;20.30;;;;;;;;;;4854705;29;20029;-84
2021/12/24 01:04:30;;;;;;;35.60;20.00;;;;;;;;;;4859873;29;20039;-85
2021/12/24 01:06:55;;;;;;;36.38;18.85;;;;;;;;;;4859159;29;20048;-84
2021/12/24 01:09:21;;;;;;;31.92;18.42;;;;;;;;;;4857779;29;20041;-84
2021/12/24 01:11:46;;;;;;;32.92;17.98;;;;;;;;;;4861025;29;20037;-84
2021/12/24 01:14:12;;;;;;;31.63;18.75;;;;;;;;;;4860586;29;20042;-85
2021/12/24 01:16:45;;;;;;;35.53;18.25;;;;;;;;;;4861014;29;20025;-82
2021/12/24 01:19:16;;;;;;;29.10;17.38;;;;;;;;;;4860107;29;20025;-84
2021/12/24 01:22:18;;;;;;;32.47;18.25;;;;;;;;;;4853880;29;20038;-80
2021/12/24 01:24:45;;;;;;;28.95;17.20;;;;;;;;;;4861165;29;20129;-81
2021/12/24 01:27:26;;;;;;;25.88;15.55;;;;;;;;;;4859188;29;20026;-81
2021/12/24 01:30:04;;;;;;;29.17;17.95;;;;;;;;;;4854312;29;20045;-84
2021/12/24 01:38:10;;;;;;;26.27;15.75;;;;;;;;;;4858849;29;20477;-81
2021/12/24 01:40:53;;;;;;;25.15;14.93;;;;;;;;;;4857926;29;20070;-84
2021/12/24 01:43:20;;;;;;;27.08;16.83;;;;;;;;;;4853389;29;20026;-82
2021/12/24 01:45:47;;;;;;;29.33;16.45;;;;;;;;;;4856785;29;20069;-84
2021/12/24 01:48:12;;;;;;;27.98;15.95;;;;;;;;;;4858148;29;20036;-84
2021/12/24 01:50:42;;;;;;;25.27;15.02;;;;;;;;;;4861146;29;20390;-84
2021/12/24 01:53:09;;;;;;;28.67;15.75;;;;;;;;;;4857576;29;20038;-81
2021/12/24 01:55:36;;;;;;;30.30;15.95;;;;;;;;;;4855651;29;20483;-81
2021/12/24 01:58:02;;;;;;;28.92;16.10;;;;;;;;;;4858970;29;20064;-83
2021/12/24 02:00:30;;;;;;;29.40;16.27;;;;;;;;;;4857854;29;20041;-83
2021/12/24 02:02:57;;;;;;;33.30;17.58;;;;;;;;;;4861661;29;20063;-84
2021/12/24 02:05:23;;;;;;;33.38;17.30;;;;;;;;;;4858880;29;20029;-83
2021/12/24 02:07:49;;;;;;;34.75;16.55;;;;;;;;;;4856117;29;20050;-83
2021/12/24 02:10:16;;;;;;;34.47;17.98;;;;;;;;;;4854760;29;20104;-82
2021/12/24 02:12:42;;;;;;;39.97;18.38;;;;;;;;;;4857133;29;20028;-81
2021/12/24 02:15:16;;;;;;;34.28;17.48;;;;;;;;;;4858615;29;20044;-84
2021/12/24 02:28:44;;;;;;;40.72;19.10;;;;;;;;;;4861722;29;20080;-84
2021/12/24 02:31:16;;;;;;;41.33;19.27;;;;;;;;;;4852995;29;20057;-84
2021/12/24 02:33:42;;;;;;;42.47;19.07;;;;;;;;;;4857362;29;20034;-84
2021/12/24 02:36:08;;;;;;;41.33;19.60;;;;;;;;;;4855325;29;20504;-82
2021/12/24 02:38:34;;;;;;;49.85;19.30;;;;;;;;;;4857542;29;20116;-84
2021/12/24 02:41:02;;;;;;;44.40;19.55;;;;;;;;;;4855429;29;20124;-84
2021/12/24 02:43:27;;;;;;;44.72;21.30;;;;;;;;;;4851374;29;20033;-82
2021/12/24 02:45:57;;;;;;;46.05;20.15;;;;;;;;;;4862063;29;20080;-84
2021/12/24 02:53:57;;;;;;;45.45;20.63;;;;;;;;;;4856146;29;20509;-84
2021/12/24 02:56:26;;;;;;;45.85;20.67;;;;;;;;;;4859487;29;20568;-85
2021/12/24 02:58:52;;;;;;;45.22;20.80;;;;;;;;;;4856390;29;20041;-84
2021/12/24 03:01:24;;;;;;;44.10;20.42;;;;;;;;;;4860072;29;20033;-82
2021/12/24 03:03:51;;;;;;;50.03;21.20;;;;;;;;;;4874551;29;20177;-84
2021/12/24 03:06:17;;;;;;;51.55;20.63;;;;;;;;;;4855730;29;20039;-82
2021/12/24 03:08:42;;;;;;;44.05;21.00;;;;;;;;;;4866206;29;20052;-84
2021/12/24 03:11:08;;;;;;;48.40;20.58;;;;;;;;;;4865789;29;20835;-84
2021/12/24 03:13:35;;;;;;;46.95;21.35;;;;;;;;;;4862100;29;20029;-84
2021/12/24 03:16:01;;;;;;;46.45;20.55;;;;;;;;;;4877098;29;20025;-82
2021/12/24 03:18:29;;;;;;;40.65;19.92;;;;;;;;;;4858964;29;20041;-82
2021/12/24 03:21:21;;;;;;;39.17;19.40;;;;;;;;;;4859939;29;20048;-82
2021/12/24 03:24:33;;;;;;;38.70;18.35;;;;;;;;;;4876017;29;20036;-82
2021/12/24 03:26:35;;;;;;;38.03;18.75;;;;;;;;;;4866824;29;20478;-83
2021/12/24 03:29:03;;;;;;;40.92;18.17;;;;;;;;;;4858978;29;20028;-84
2021/12/24 03:31:28;;;;;;;38.80;18.85;;;;;;;;;;4876564;29;20115;-84
2021/12/24 03:33:54;;;;;;;37.13;17.73;;;;;;;;;;4862302;29;20502;-84
2021/12/24 03:36:21;;;;;;;44.42;18.13;;;;;;;;;;4861965;29;20150;-84
2021/12/24 03:38:47;;;;;;;33.80;16.70;;;;;;;;;;4878938;29;20041;-82
2021/12/24 03:41:12;;;;;;;38.97;16.05;;;;;;;;;;4875844;29;20044;-84
2021/12/24 03:43:37;;;;;;;34.08;16.20;;;;;;;;;;4858054;29;20432;-83
2021/12/24 03:46:07;;;;;;;33.50;15.60;;;;;;;;;;4862648;29;20025;-84
2021/12/24 03:56:23;;;;;;;36.63;14.25;;;;;;;;;;4877528;29;20096;-84
2021/12/24 03:58:48;;;;;;;33.70;12.60;;;;;;;;;;4875255;29;20041;-84
2021/12/24 04:01:14;;;;;;;34.20;13.48;;;;;;;;;;4859657;29;20397;-82
2021/12/24 04:03:39;;;;;;;29.17;12.02;;;;;;;;;;4862921;29;20060;-84
2021/12/24 04:06:04;;;;;;;27.98;11.02;;;;;;;;;;4861207;29;20116;-82
2021/12/24 04:08:31;;;;;;;26.20;11.20;;;;;;;;;;4872423;29;20071;-84
2021/12/24 04:10:56;;;;;;;27.10;10.75;;;;;;;;;;4863222;29;20088;-82
2021/12/24 04:13:22;;;;;;;24.30;10.77;;;;;;;;;;4864675;29;20442;-85
2021/12/24 04:15:47;;;;;;;31.27;10.27;;;;;;;;;;4860251;29;20044;-84
2021/12/24 04:18:36;;;;;;;25.45;9.57;;;;;;;;;;4862589;29;20064;-84
2021/12/24 04:26:33;;;;;;;23.30;8.95;;;;;;;;;;4874559;29;20433;-82
2021/12/24 04:28:59;;;;;;;21.38;8.23;;;;;;;;;;4859313;29;20029;-82
2021/12/24 04:31:38;;;;;;;24.25;8.95;;;;;;;;;;4874337;29;20044;-82
2021/12/24 04:34:03;;;;;;;26.73;9.02;;;;;;;;;;4865492;29;20389;-85
2021/12/24 05:03:08;;;;;;;21.58;10.63;;;;;;;;;;4876281;29;20036;-84
2021/12/24 05:05:53;;;;;;;27.20;10.00;;;;;;;;;;4865137;29;20477;-82
2021/12/24 05:08:22;;;;;;;24.38;9.82;;;;;;;;;;4854987;29;20133;-84
2021/12/24 05:10:49;;;;;;;23.25;9.90;;;;;;;;;;4872480;29;20397;-84
2021/12/24 05:13:17;;;;;;;22.92;9.65;;;;;;;;;;4855945;29;20044;-84
2021/12/24 05:15:45;;;;;;;23.52;9.63;;;;;;;;;;4863994;29;20050;-82
2021/12/24 05:23:41;;;;;;;24.42;10.02;;;;;;;;;;4872660;29;20108;-84
2021/12/24 05:26:07;;;;;;;22.35;9.75;;;;;;;;;;4874978;29;20919;-84
2021/12/24 05:28:32;;;;;;;25.60;10.65;;;;;;;;;;4856856;29;20035;-83
2021/12/24 05:30:58;;;;;;;27.10;11.10;;;;;;;;;;4859069;29;20041;-83
2021/12/24 05:33:23;;;;;;;24.38;10.70;;;;;;;;;;4860486;29;20121;-84
2021/12/24 05:35:48;;;;;;;25.10;10.20;;;;;;;;;;4871362;29;20041;-84
2021/12/24 05:38:15;;;;;;;27.60;9.65;;;;;;;;;;4859719;29;20573;-82
2021/12/24 05:40:42;;;;;;;23.25;9.82;;;;;;;;;;4868367;29;20041;-84
2021/12/24 05:43:08;;;;;;;25.42;10.35;;;;;;;;;;4856354;29;20025;-84
2021/12/24 05:45:34;;;;;;;22.67;10.00;;;;;;;;;;4860163;29;20512;-84
2021/12/24 05:47:59;;;;;;;25.20;9.43;;;;;;;;;;4876377;29;20045;-82
2021/12/24 05:50:25;;;;;;;25.08;9.20;;;;;;;;;;4863414;29;20032;-84
2021/12/24 05:52:50;;;;;;;30.20;9.25;;;;;;;;;;4876826;29;20036;-84
2021/12/24 05:55:15;;;;;;;26.33;9.63;;;;;;;;;;4863718;29;20124;-84
2021/12/24 05:57:41;;;;;;;23.33;8.55;;;;;;;;;;4864853;29;20065;-82
2021/12/24 06:00:08;;;;;;;26.17;8.77;;;;;;;;;;4857970;29;20036;-84
2021/12/24 06:02:34;;;;;;;23.08;9.30;;;;;;;;;;4874105;29;20033;-84
2021/12/24 06:05:00;;;;;;;25.60;8.13;;;;;;;;;;4863228;29;20124;-84
2021/12/24 06:07:25;;;;;;;28.50;9.05;;;;;;;;;;4860208;29;20056;-84
2021/12/24 06:09:50;;;;;;;23.90;8.75;;;;;;;;;;4867477;29;20541;-82
2021/12/24 06:12:16;;;;;;;20.75;7.70;;;;;;;;;;4859420;29;20500;-84
2021/12/24 06:14:44;;;;;;;19.60;7.88;;;;;;;;;;4863054;29;20029;-82
2021/12/24 06:17:15;;;;;;;23.58;8.20;;;;;;;;;;4862469;29;20076;-84
2021/12/24 06:19:40;;;;;;;30.80;9.85;;;;;;;;;;4864893;29;20504;-84
2021/12/24 06:22:05;;;;;;;25.90;8.40;;;;;;;;;;4862438;29;20033;-83
2021/12/24 06:24:31;;;;;;;22.35;8.63;;;;;;;;;;4863946;29;20077;-84
2021/12/24 06:26:57;;;;;;;24.63;9.68;;;;;;;;;;4858976;29;20044;-82
2021/12/24 06:29:22;;;;;;;27.35;9.25;;;;;;;;;;4863903;29;22916;-83
2021/12/24 06:31:49;;;;;;;26.10;9.55;;;;;;;;;;4863156;29;20045;-82
2021/12/24 06:34:14;;;;;;;24.45;9.45;;;;;;;;;;4858888;29;20028;-82
2021/12/24 06:36:43;;;;;;;21.50;9.32;;;;;;;;;;4861806;29;20052;-84
2021/12/24 06:39:09;;;;;;;22.60;9.68;;;;;;;;;;4865686;29;20029;-82
2021/12/24 06:41:34;;;;;;;24.77;10.02;;;;;;;;;;4860205;29;20095;-82
2021/12/24 06:44:00;;;;;;;25.35;9.43;;;;;;;;;;4862126;29;20048;-84
2021/12/24 06:46:27;;;;;;;24.08;10.25;;;;;;;;;;4861065;29;20313;-84
2021/12/24 06:48:53;;;;;;;25.85;10.43;;;;;;;;;;4856412;29;20074;-84
2021/12/24 06:51:20;;;;;;;27.13;10.27;;;;;;;;;;4872878;29;20054;-84
2021/12/24 06:53:45;;;;;;;26.73;9.68;;;;;;;;;;4860314;29;20378;-84
2021/12/24 06:56:11;;;;;;;26.65;10.05;;;;;;;;;;4877080;29;20053;-83
2021/12/24 06:58:36;;;;;;;27.27;10.80;;;;;;;;;;4861509;29;20036;-84
2021/12/24 07:01:02;;;;;;;30.30;9.88;;;;;;;;;;4876066;29;20397;-82
2021/12/24 07:03:27;;;;;;;23.55;10.35;;;;;;;;;;4863036;29;20039;-84
2021/12/24 07:05:53;;;;;;;25.98;10.82;;;;;;;;;;4862249;29;20032;-84
2021/12/24 07:08:18;;;;;;;36.40;10.27;;;;;;;;;;4875482;29;20049;-84
2021/12/24 07:10:43;;;;;;;29.65;10.00;;;;;;;;;;4865573;29;20037;-84
2021/12/24 07:13:08;;;;;;;28.23;10.95;;;;;;;;;;4865429;29;20037;-84
2021/12/24 07:15:34;;;;;;;25.30;10.15;;;;;;;;;;4862436;29;20025;-84
2021/12/24 07:17:59;;;;;;;23.00;9.50;;;;;;;;;;4878436;29;20037;-84
2021/12/24 07:20:25;;;;;;;26.00;10.25;;;;;;;;;;4879991;29;20059;-83
2021/12/24 07:22:50;;;;;;;28.17;10.30;;;;;;;;;;4858703;29;20036;-84
2021/12/24 07:25:15;;;;;;;22.52;9.27;;;;;;;;;;4864405;29;20548;-82
2021/12/24 07:27:41;;;;;;;22.17;9.95;;;;;;;;;;4859522;29;20544;-84
2021/12/24 07:30:10;;;;;;;24.20;10.93;;;;;;;;;;4864915;29;20029;-84
2021/12/24 07:32:36;;;;;;;24.30;9.68;;;;;;;;;;4864409;29;20129;-84
2021/12/24 07:35:03;;;;;;;19.63;8.73;;;;;;;;;;4876158;29;20020;-82
2021/12/24 07:37:28;;;;;;;23.75;9.32;;;;;;;;;;4853890;29;20049;-83
2021/12/24 07:39:53;;;;;;;23.17;9.07;;;;;;;;;;4862698;29;20028;-84
2021/12/24 07:42:19;;;;;;;25.27;10.43;;;;;;;;;;4864643;29;20056;-84
2021/12/24 07:44:44;;;;;;;25.20;9.55;;;;;;;;;;4866679;29;20397;-83
2021/12/24 07:47:16;;;;;;;25.92;9.68;;;;;;;;;;4874650;29;20037;-82
2021/12/24 07:49:44;;;;;;;26.58;9.00;;;;;;;;;;4860638;29;20085;-84
2021/12/24 07:52:09;;;;;;;33.55;10.02;;;;;;;;;;4874484;29;20131;-83
2021/12/24 07:54:47;;;;;;;22.27;9.45;;;;;;;;;;4858744;29;20505;-83
2021/12/24 07:57:14;;;;;;;21.67;8.85;;;;;;;;;;4857713;29;20041;-84
2021/12/24 07:59:42;;;;;;;20.13;8.40;;;;;;;;;;4858577;29;20109;-84
2021/12/24 08:02:11;;;;;;;21.38;8.48;;;;;;;;;;4858780;29;20129;-82
2021/12/24 08:04:38;;;;;;;19.65;7.97;;;;;;;;;;4859234;29;20304;-81
2021/12/24 08:07:03;;;;;;;23.85;8.23;;;;;;;;;;4877752;29;20029;-83
2021/12/24 08:09:29;;;;;;;17.15;7.68;;;;;;;;;;4860974;29;20116;-85
2021/12/24 08:11:54;;;;;;;26.90;8.63;;;;;;;;;;4857456;29;20097;-82
2021/12/24 08:14:19;;;;;;;22.63;8.10;;;;;;;;;;4859342;29;20412;-83
2021/12/24 08:16:45;;;;;;;24.05;8.32;;;;;;;;;;4862550;29;20029;-84
2021/12/24 08:19:13;;;;;;;22.75;8.48;;;;;;;;;;4873614;29;20035;-82
2021/12/24 08:21:38;;;;;;;20.58;8.10;;;;;;;;;;4853842;29;20481;-84
2021/12/24 08:24:04;;;;;;;20.63;7.90;;;;;;;;;;4858772;29;20031;-84
2021/12/24 08:26:31;;;;;;;23.60;8.77;;;;;;;;;;4858841;29;20039;-82
2021/12/24 08:28:56;;;;;;;24.67;8.15;;;;;;;;;;4871702;29;20045;-84
2021/12/24 08:31:21;;;;;;;22.02;8.27;;;;;;;;;;4862115;29;20041;-84
2021/12/24 08:33:47;;;;;;;19.38;7.57;;;;;;;;;;4856893;29;20036;-84
2021/12/24 08:36:13;;;;;;;24.05;8.45;;;;;;;;;;4858505;29;20036;-84
2021/12/24 08:38:39;;;;;;;19.98;8.85;;;;;;;;;;4850215;29;20105;-84
2021/12/24 08:41:04;;;;;;;22.40;8.52;;;;;;;;;;4861846;29;20119;-84
2021/12/24 08:43:30;;;;;;;19.95;7.38;;;;;;;;;;4860738;29;20060;-84
2021/12/24 08:45:55;;;;;;;26.02;8.73;;;;;;;;;;4857758;29;20159;-84
2021/12/24 08:48:20;;;;;;;22.08;8.07;;;;;;;;;;4856886;29;20111;-84
2021/12/24 08:50:46;;;;;;;23.58;7.82;;;;;;;;;;4873360;29;20048;-84
2021/12/24 08:53:12;;;;;;;29.55;7.68;;;;;;;;;;4857954;29;20120;-83
2021/12/24 08:55:38;;;;;;;26.10;7.85;;;;;;;;;;4856326;29;20097;-84
2021/12/24 08:58:04;;;;;;;21.10;7.82;;;;;;;;;;4858092;29;20045;-82
2021/12/24 09:00:30;;;;;;;22.95;8.75;;;;;;;;;;4855185;29;20039;-84
2021/12/24 09:02:56;;;;;;;27.52;8.25;;;;;;;;;;4860594;29;20032;-82
2021/12/24 09:05:22;;;;;;;23.40;8.18;;;;;;;;;;4859231;29;20076;-83
2021/12/24 09:07:48;;;;;;;25.92;7.82;;;;;;;;;;4869002;29;20061;-83
2021/12/24 09:10:13;;;;;;;26.80;8.45;;;;;;;;;;4855576;29;20145;-82
2021/12/24 09:12:43;;;;;;;24.17;8.90;;;;;;;;;;4860763;29;20467;-82
2021/12/24 09:15:11;;;;;;;27.27;8.23;;;;;;;;;;4857376;29;20064;-82
2021/12/24 09:17:36;;;;;;;27.30;8.48;;;;;;;;;;4878143;29;20061;-84
2021/12/24 09:20:03;;;;;;;23.90;8.35;;;;;;;;;;4859466;29;20037;-84
2021/12/24 09:22:32;;;;;;;23.40;8.63;;;;;;;;;;4868758;29;20081;-82
2021/12/24 09:24:58;;;;;;;24.40;8.63;;;;;;;;;;4858168;29;20729;-84
2021/12/24 09:27:24;;;;;;;26.17;8.65;;;;;;;;;;4858625;29;20029;-84
2021/12/24 09:29:49;;;;;;;26.42;9.75;;;;;;;;;;4871738;29;20036;-86
2021/12/24 09:32:15;;;;;;;27.75;9.52;;;;;;;;;;4868419;29;20032;-84
2021/12/24 09:34:41;;;;;;;21.50;8.48;;;;;;;;;;4866528;29;20029;-85
2021/12/24 09:37:06;;;;;;;23.98;8.27;;;;;;;;;;4876127;29;20065;-84
2021/12/24 09:39:32;;;;;;;19.73;8.30;;;;;;;;;;4859435;29;20081;-86
2021/12/24 09:42:01;;;;;;;26.60;8.45;;;;;;;;;;4864070;29;20037;-84
2021/12/24 09:44:28;;;;;;;22.25;7.85;;;;;;;;;;4855658;29;20033;-85
2021/12/24 09:46:54;;;;;;;24.30;8.55;;;;;;;;;;4859485;29;20035;-86
2021/12/24 09:49:20;;;;;;;28.50;8.18;;;;;;;;;;4852836;29;20041;-86
2021/12/24 09:51:49;;;;;;;26.63;8.45;;;;;;;;;;4863348;29;20040;-86
2021/12/24 09:54:18;;;;;;;27.45;8.88;;;;;;;;;;4860281;29;20493;-86
2021/12/24 09:56:44;;;;;;;18.52;8.48;;;;;;;;;;4864174;29;20424;-84
2021/12/24 09:59:10;;;;;;;25.98;8.70;;;;;;;;;;4868666;29;20036;-85
2021/12/24 10:01:39;;;;;;;26.92;7.93;;;;;;;;;;4876338;29;20468;-86
2021/12/24 10:04:12;;;;;;;25.45;8.32;;;;;;;;;;4861814;29;20028;-85
2021/12/24 10:06:39;;;;;;;;;;;;;;;;;;4859101;29;20088;-83
2021/12/24 10:09:11;;;;;;;18.10;7.45;;;;;;;;;;4859489;29;20475;-84
2021/12/24 10:11:55;;;;;;;22.10;7.78;;;;;;;;;;4874267;29;20488;-84
2021/12/24 10:14:36;;;;;;;;;;;;;;;;;;4866217;29;20036;-84
2021/12/24 10:17:04;;;;;;;21.17;7.63;;;;;;;;;;4857804;29;19920;-85
2021/12/24 10:19:46;;;;;;;21.30;7.35;;;;;;;;;;4863864;29;20040;-85
2021/12/24 10:22:12;;;;;;;19.30;6.53;;;;;;;;;;4859600;29;20073;-86
2021/12/24 10:24:37;;;;;;;25.88;6.75;;;;;;;;;;4856917;29;20078;-85
2021/12/24 10:27:04;;;;;;;23.27;6.32;;;;;;;;;;4859363;29;20044;-85
2021/12/24 10:29:37;;;;;;;25.50;6.75;;;;;;;;;;4856127;29;20044;-84
2021/12/24 10:32:13;;;;;;;23.50;6.40;;;;;;;;;;4873986;29;20028;-85
2021/12/24 10:34:39;;;;;;;19.00;6.00;;;;;;;;;;4861995;29;20071;-83
2021/12/24 10:37:24;;;;;;;24.30;7.15;;;;;;;;;;4857153;29;20033;-83
2021/12/24 10:40:00;;;;;;;21.42;6.80;;;;;;;;;;4861936;29;20043;-86
2021/12/24 10:42:31;;;;;;;24.00;7.03;;;;;;;;;;4859440;29;20044;-86
2021/12/24 10:44:58;;;;;;;19.10;6.35;;;;;;;;;;4851304;29;20065;-86
2021/12/24 10:47:29;;;;;;;22.85;6.55;;;;;;;;;;4874276;29;20069;-83
2021/12/24 10:50:14;;;;;;;24.58;7.30;;;;;;;;;;4859874;29;20060;-85
2021/12/24 10:52:59;;;;;;;21.10;7.25;;;;;;;;;;4873236;29;20033;-84
2021/12/24 10:55:36;;;;;;;22.15;6.50;;;;;;;;;;4860671;29;20135;-84
2021/12/24 10:58:03;;;;;;;19.65;7.25;;;;;;;;;;4856140;29;20022;-83
2021/12/24 11:00:48;;;;;;;23.65;7.40;;;;;;;;;;4866502;29;20038;-83
2021/12/24 11:03:22;;;;;;;24.92;7.32;;;;;;;;;;4869486;29;20037;-86
2021/12/24 11:06:05;;;;;;;25.75;8.00;;;;;;;;;;4871647;29;20120;-84
2021/12/24 11:08:51;;;;;;;;;;;;;;;;;;4853096;29;20056;-83
2021/12/24 11:11:18;;;;;;;21.90;8.13;;;;;;;;;;4856532;29;19924;-84
2021/12/24 11:13:47;;;;;;;19.42;7.75;;;;;;;;;;4866261;29;20498;-86
2021/12/24 11:16:22;;;;;;;24.55;9.40;;;;;;;;;;4865295;29;20404;-84
2021/12/24 11:19:26;;;;;;;21.85;8.77;;;;;;;;;;4860210;29;20033;-84
2021/12/24 11:22:22;;;;;;;25.60;8.88;;;;;;;;;;4863278;29;20033;-83
2021/12/24 11:24:48;;;;;;;25.42;8.70;;;;;;;;;;4858615;29;20035;-83
2021/12/24 11:27:18;;;;;;;26.77;8.93;;;;;;;;;;4856090;29;20029;-84
2021/12/24 11:29:51;;;;;;;23.15;8.57;;;;;;;;;;4858661;29;20041;-83
2021/12/24 11:32:20;;;;;;;20.95;8.98;;;;;;;;;;4856095;29;20137;-84
2021/12/24 11:34:48;;;;;;;24.67;9.55;;;;;;;;;;4857996;29;20079;-83
2021/12/24 11:37:19;;;;;;;24.20;9.43;;;;;;;;;;4855334;29;20036;-84
2021/12/24 11:39:53;;;;;;;24.50;8.90;;;;;;;;;;4853910;29;20070;-84
2021/12/24 11:42:20;;;;;;;23.05;9.25;;;;;;;;;;4861046;29;20111;-85
2021/12/24 11:44:52;;;;;;;23.10;9.95;;;;;;;;;;4857969;29;20028;-83
2021/12/24 11:47:21;;;;;;;26.10;9.27;;;;;;;;;;4855660;29;20041;-86
2021/12/24 11:49:50;;;;;;;24.85;10.05;;;;;;;;;;4856866;29;20045;-84
2021/12/24 11:52:25;;;;;;;24.15;9.68;;;;;;;;;;4858899;29;20437;-83
2021/12/24 11:54:56;;;;;;;27.55;10.10;;;;;;;;;;4852316;29;20535;-84
2021/12/24 11:57:24;;;;;;;25.52;10.02;;;;;;;;;;4855901;29;20044;-83
2021/12/24 11:59:53;;;;;;;26.42;10.23;;;;;;;;;;4854639;29;20029;-87
2021/12/24 12:02:36;;;;;;;24.90;9.93;;;;;;;;;;4856779;29;20033;-84
2021/12/24 12:05:32;;;;;;;30.73;10.13;;;;;;;;;;4864176;29;20080;-84
2021/12/24 12:08:25;;;;;;;18.65;8.80;;;;;;;;;;4859221;29;20053;-85
2021/12/24 12:10:57;;;;;;;26.38;9.23;;;;;;;;;;4860782;29;20017;-83
2021/12/24 12:14:27;;;;;;;;;;;;;;;;;;;;;
2021/12/24 12:17:05;;;;;;;22.38;8.95;;;;;;;;;;4872905;29;20045;-84
2021/12/24 12:22:55;;;;;;;26.48;10.07;;;;;;;;;;4878353;29;20032;-84
2021/12/24 12:25:33;;;;;;;26.58;8.73;;;;;;;;;;4876539;29;20063;-87
2021/12/24 12:28:01;;;;;;;25.77;9.43;;;;;;;;;;4855632;29;20037;-83
2021/12/24 12:30:29;;;;;;;25.30;9.32;;;;;;;;;;4856529;29;20520;-84
2021/12/24 12:33:26;;;;;;;24.33;9.18;;;;;;;;;;4861097;29;20393;-87
2021/12/24 12:36:02;;;;;;;25.55;9.20;;;;;;;;;;4869927;29;20062;-84
2021/12/24 12:38:29;;;;;;;24.38;9.65;;;;;;;;;;4854736;29;20052;-85
2021/12/24 12:41:19;;;;;;;27.20;9.93;;;;;;;;;;4874740;29;20088;-85
2021/12/24 12:44:01;;;;;;;25.05;10.23;;;;;;;;;;4839474;29;20041;-87
2021/12/24 12:46:38;;;;;;;25.13;10.13;;;;;;;;;;4883722;29;20655;-84
2021/12/24 12:49:07;;;;;;;21.02;10.05;;;;;;;;;;4867334;29;20811;-86
2021/12/24 12:51:58;;;;;;;23.40;9.98;;;;;;;;;;4858230;29;20062;-88
2021/12/24 12:54:49;;;;;;;26.60;10.60;;;;;;;;;;4874860;29;20040;-84
2021/12/24 12:57:31;;;;;;;23.65;9.40;;;;;;;;;;4856527;29;20037;-83
2021/12/24 13:00:12;;;;;;;25.45;10.52;;;;;;;;;;4873184;29;20571;-86
2021/12/24 13:03:17;;;;;;;27.73;9.48;;;;;;;;;;4861028;29;20120;-82
2021/12/24 13:05:42;;;;;;;23.40;9.50;;;;;;;;;;4872252;29;20032;-84
2021/12/24 13:08:12;;;;;;;25.10;10.27;;;;;;;;;;4857961;29;20053;-85
2021/12/24 13:10:38;;;;;;;26.55;10.07;;;;;;;;;;4874899;29;20028;-82
2021/12/24 13:13:07;;;;;;;24.60;9.50;;;;;;;;;;4865590;29;20560;-83
2021/12/24 13:16:05;;;;;;;23.98;9.38;;;;;;;;;;4875764;29;20025;-84
2021/12/24 13:18:35;;;;;;;23.42;9.27;;;;;;;;;;4870413;29;20088;-84
2021/12/24 13:23:37;;;;;;;;;;;;;;;;;;4875583;29;20137;-83
2021/12/24 13:26:17;;;;;;;23.08;8.57;;;;;;;;;;4855904;29;19915;-84
2021/12/24 13:29:21;;;;;;;20.98;8.60;;;;;;;;;;4856224;29;20043;-84
2021/12/24 13:32:04;;;;;;;;;;;;;;;;;;4858007;29;20516;-84
2021/12/24 13:34:39;;;;;;;18.60;8.45;;;;;;;;;;4866172;29;20014;-83
2021/12/24 13:37:17;;;;;;;21.45;8.07;;;;;;;;;;4857143;29;20052;-83
2021/12/24 13:39:55;;;;;;;23.58;8.23;;;;;;;;;;4840505;29;20036;-85
2021/12/24 13:42:24;;;;;;;24.20;8.93;;;;;;;;;;4868372;29;20165;-84
2021/12/24 13:45:03;;;;;;;21.52;8.80;;;;;;;;;;4853163;29;20029;-85
2021/12/24 13:47:53;;;;;;;20.85;7.93;;;;;;;;;;4855948;29;20032;-85
2021/12/24 13:56:01;;;;;;;24.00;8.20;;;;;;;;;;4880120;29;20124;-84
2021/12/24 13:58:36;;;;;;;23.58;7.63;;;;;;;;;;4861219;29;20115;-85
2021/12/24 14:01:05;;;;;;;24.25;7.55;;;;;;;;;;4850793;29;20107;-84
2021/12/24 14:03:41;;;;;;;25.33;7.32;;;;;;;;;;4861404;29;20437;-84
2021/12/24 14:06:11;;;;;;;18.05;7.70;;;;;;;;;;4861379;29;20059;-84
2021/12/24 14:08:39;;;;;;;19.15;6.35;;;;;;;;;;4855935;29;20417;-84
2021/12/24 14:11:15;;;;;;;21.75;7.32;;;;;;;;;;4860123;29;20028;-85
2021/12/24 14:13:49;;;;;;;21.13;7.00;;;;;;;;;;4857239;29;20032;-83
2021/12/24 14:18:51;;;;;;;18.80;7.07;;;;;;;;;;4872046;29;20029;-84
2021/12/24 14:24:17;;;;;;;17.02;6.65;;;;;;;;;;4877918;29;20033;-85
2021/12/24 14:26:51;;;;;;;19.98;7.15;;;;;;;;;;4878168;29;20566;-84
2021/12/24 14:29:41;;;;;;;15.93;6.53;;;;;;;;;;4865882;29;20039;-84
2021/12/24 14:32:17;;;;;;;18.50;6.22;;;;;;;;;;4868712;29;20092;-83
2021/12/24 14:34:56;;;;;;;13.35;6.13;;;;;;;;;;4857767;29;20047;-85
2021/12/24 14:37:28;;;;;;;17.15;5.78;;;;;;;;;;4859121;29;20025;-85
2021/12/24 14:40:22;;;;;;;18.38;5.32;;;;;;;;;;4865648;29;20033;-83
2021/12/24 14:42:50;;;;;;;21.38;5.78;;;;;;;;;;4871516;29;20027;-85
2021/12/24 14:45:26;;;;;;;15.80;5.85;;;;;;;;;;4863251;29;20703;-84
2021/12/24 14:48:20;;;;;;;17.75;6.35;;;;;;;;;;4865392;29;20686;-84
2021/12/24 14:50:50;;;;;;;13.80;5.07;;;;;;;;;;4863474;29;20033;-85
2021/12/24 14:53:23;;;;;;;17.20;5.10;;;;;;;;;;4859449;29;20036;-83
2021/12/24 14:55:58;;;;;;;13.93;5.13;;;;;;;;;;4860245;29;20059;-85
2021/12/24 14:59:01;;;;;;;14.18;4.60;;;;;;;;;;4858762;29;20032;-84
2021/12/24 15:01:39;;;;;;;13.13;5.10;;;;;;;;;;4842798;29;20096;-85
2021/12/24 15:04:14;;;;;;;13.07;4.53;;;;;;;;;;4860756;29;20036;-85
2021/12/24 15:07:21;;;;;;;14.60;4.45;;;;;;;;;;4862094;29;20072;-84
2021/12/24 15:10:26;;;;;;;20.73;4.50;;;;;;;;;;4859495;29;20049;-85
2021/12/24 15:13:02;;;;;;;15.77;4.35;;;;;;;;;;4868729;29;20041;-85
2021/12/24 15:15:28;;;;;;;14.45;4.43;;;;;;;;;;4876485;29;20393;-83
2021/12/24 15:17:54;;;;;;;13.40;4.38;;;;;;;;;;4857902;29;20017;-84
2021/12/24 15:20:27;;;;;;;15.65;4.43;;;;;;;;;;4860596;29;20056;-84
2021/12/24 15:22:56;;;;;;;13.60;4.07;;;;;;;;;;4859582;29;20021;-85
2021/12/24 15:25:24;;;;;;;12.23;4.57;;;;;;;;;;4855074;29;20076;-85
2021/12/24 15:27:56;;;;;;;13.77;4.53;;;;;;;;;;4875268;29;20597;-84
2021/12/24 15:30:27;;;;;;;14.35;4.20;;;;;;;;;;4854585;29;20081;-84
2021/12/24 15:32:55;;;;;;;11.93;4.05;;;;;;;;;;4861941;29;20089;-85
2021/12/24 15:35:27;;;;;;;16.63;4.97;;;;;;;;;;4866610;29;20032;-84
2021/12/24 15:38:00;;;;;;;15.65;4.80;;;;;;;;;;4862924;29;20128;-84
2021/12/24 15:40:29;;;;;;;13.07;4.47;;;;;;;;;;4866531;29;20651;-84
2021/12/24 15:43:01;;;;;;;14.93;4.63;;;;;;;;;;4866645;29;20033;-84
2021/12/24 15:45:48;;;;;;;18.23;4.55;;;;;;;;;;4861030;29;20037;-85
2021/12/24 15:48:16;;;;;;;12.60;3.97;;;;;;;;;;4859299;29;20049;-85
2021/12/24 15:51:05;;;;;;;16.05;4.85;;;;;;;;;;4865236;29;20395;-83
2021/12/24 15:53:32;;;;;;;16.98;4.55;;;;;;;;;;4880645;29;20120;-84
2021/12/24 15:56:05;;;;;;;14.32;4.07;;;;;;;;;;4864608;29;20084;-84
2021/12/24 15:58:34;;;;;;;16.33;4.50;;;;;;;;;;4858039;29;20107;-85
2021/12/24 16:01:01;;;;;;;16.33;4.70;;;;;;;;;;4874360;29;20320;-85
2021/12/24 16:03:35;;;;;;;13.05;3.97;;;;;;;;;;4870694;29;20033;-85
2021/12/24 16:06:02;;;;;;;13.10;4.13;;;;;;;;;;4873455;29;20037;-84
2021/12/24 16:08:34;;;;;;;15.65;5.53;;;;;;;;;;4860204;29;20067;-84
2021/12/24 16:11:03;;;;;;;12.40;4.03;;;;;;;;;;4853429;29;20048;-85
2021/12/24 16:13:35;;;;;;;13.30;4.28;;;;;;;;;;4853500;29;20095;-85
2021/12/24 16:16:06;;;;;;;12.27;3.88;;;;;;;;;;4851456;29;20529;-85
2021/12/24 16:18:34;;;;;;;8.65;4.28;;;;;;;;;;4854083;29;20045;-85
2021/12/24 16:21:03;;;;;;;13.85;4.65;;;;;;;;;;4858471;29;20033;-82
2021/12/24 16:23:37;;;;;;;13.52;4.85;;;;;;;;;;4859300;29;20676;-85
2021/12/24 16:26:05;;;;;;;18.65;5.55;;;;;;;;;;4857061;29;20037;-84
2021/12/24 16:28:37;;;;;;;13.90;4.78;;;;;;;;;;4860200;29;20093;-83
2021/12/24 16:31:05;;;;;;;14.85;5.00;;;;;;;;;;4854927;29;20029;-85
2021/12/24 16:33:38;;;;;;;13.80;5.35;;;;;;;;;;4858314;29;20057;-83
2021/12/24 16:36:07;;;;;;;13.27;5.05;;;;;;;;;;4854280;29;20033;-84